メインページ
METAR-TAF:

METAR-TAF

空港 :

ボゴタ, コロンビア

エルドラド国際空港

緯度: 04-43N, 経度: 074-09W, 海抜: 2547m

現時点の気象観測

当レポートは36分前の03:00(UTC)に作成
北西の風 4kt
気温 11°C
湿度 76%
気圧 1030 hPa
視程10km以上

METAR: SKBO 260300Z 31004KT 9999 NSC 11/07 A3041

時間: 22:36 (03:36 UTC)

予報

当レポートは4時間36分前の23:00(UTC)に作成
予報は26日の 00時(UTC)から 26日の 24時(UTC)まで有効
変向風 2kt
視程10km以上
高度1700ftの雲は散在している
高度20000ftの雲は散在している
26日の 01時(UTC)から 26日の 03時(UTC)まで徐々に
の風 10kt
26日の 02時(UTC)から 26日の 05時(UTC)まで一時的に
高度1700ftの雲は散在している, 塔状積雲.
近辺でにわか雨
26日の 08時(UTC)から 26日の 13時(UTC)まで一時的に
視程: 5000m
高度1200ftの雲は散在している
26日の 19時(UTC)から 26日の 23時(UTC)まで一時的に
南/南東の風 7kt
高度1700ftの雲は散在している, 塔状積雲.

TAF: SKBO 252300Z 2600/2624 VRB02KT 9999 SCT017 SCT200 BECMG 2601/2603 09010KT TEMPO 2602/2605 VCSH SCT017TCU TEMPO 2608/2613 5000 BR SCT012 TEMPO 2619/2623 15007KT SCT017TCU TX22/2618Z TN09/2611Z

4,000以上の空港の気象観測と天気予報(METAR報とTAF報)

利用可能な観測所は地図上に黄色い丸と赤い丸で示す。

丸の上にカーソルを重ねると観測所名を参照できる。

次にクリックすると気象観測と天気予報を参照できる。

マップの切り替え:黒色「×」印の緑ボタンをクリックして拡大、「-」印の緑ボタンをクリックして縮小、緑色の三角印をクリックして隣りの地図に切り替え


METAR-TAF: